Terminal Aerodrome Forecast
Issued by NWS Sterling, VA

Home | Current Version | Previous Version | Text Only | Print | Product List | Glossary On
Versions: 1 2 3 4 5 6 7 8 9 10 11 12 13 14 15 16 17 18 19 20 21 22 23 24 25 26
960
FTUS41 KLWX 300535
TAFIAD
TAF
KIAD 300535Z 3006/0112 07015KT 3SM -SHRADZ BKN008
     FM301200 06013G17KT 2SM -DZ OVC005
     FM301800 06010KT 2SM -SHRADZ OVC008
     FM010600 05006KT 5SM -SHRADZ OVC008=

USA.gov is the U.S. government's official web portal to all federal, state and local government web resources and services.